Metar Cercanos

 

LEPA - Palma De Mallorc, Spain
Distance from station: ONO 38km
Actualización: Tue, 06-Dec-2022 10:30pm CET
Few Clouds
Few Clouds
 Viento del ENE
Viento: ENE 9 km/h
Temperatura: 14°C
Rocío: 13°C
Humedad: 94%
Barómetro: 1015 hPa
Clouds: Few Clouds
Visibility: 10 km
Cloud details: Few Clouds 762 m
2022/12/06 21:30 LEPA 062130Z 06005KT 9999 FEW025 14/13 Q1015 NOSIG
LEMH - Mahon/Menorca Is, Spain
Distance from station: ENE 105km
Actualización: Tue, 06-Dec-2022 10:30pm CET
Despejado
Despejado
 Viento del NNO
Viento: NNO 9 km/h
Temperatura: 12°C
Rocío: 12°C
Humedad: 100%
Barómetro: 1015 hPa
Resumen: Despejado
Visibility: greater than 10 km
2022/12/06 21:30 LEMH 062130Z AUTO 34005KT CAVOK 12/12 Q1015
 
LEIB - Ibiza/Es Codola, Spain
Distance from station: OSO 165km
Actualización: Tue, 06-Dec-2022 10:30pm CET
Parcialmente nuboso
Parcialmente nuboso
 Viento del calm
Viento: Calma
Temperatura: 14°C
Rocío: 13°C
Humedad: 94%
Barómetro: 1015 hPa
Clouds: Parcialmente nuboso
Visibility: 10 km
Cloud details: Parcialmente nuboso 732 m
2022/12/06 21:30 LEIB 062130Z 00000KT 9999 SCT024 14/13 Q1015 NOSIG
LEBL - Barcelona Airpor, Spain
Distance from station: NNO 225km
Actualización: Tue, 06-Dec-2022 10:30pm CET
Few Clouds
Few Clouds
 Viento del NO
Viento: NO 6 km/h
Temperatura: 9°C
Rocío: 8°C
Humedad: 94%
Barómetro: 1015 hPa
Clouds: Few Clouds
Visibility: 9 km
Cloud details: Few Clouds 457 m
2022/12/06 21:30 LEBL 062130Z 32003KT 9000 FEW015 09/08 Q1015 NOSIG
 
LEVC - Valencia (civ/Mi, Spain
Distance from station: NO 188km
Actualización: Tue, 06-Dec-2022 10:30pm CET
Few Clouds
Few Clouds
 Viento del NO
Viento: NO 6 km/h
Temperatura: 12°C
Rocío: 11°C
Humedad: 94%
Barómetro: 1015 hPa
Clouds: Few Clouds
Visibility: 10 km
Cloud details: Few Clouds 1829 m
2022/12/06 21:30 LEVC 062130Z 32003KT 9999 FEW060 12/11 Q1015 NOSIG
LEGE - Gerona/Costa Bra, Spain
Distance from station: N 276km
Actualización: Tue, 06-Dec-2022 10:30pm CET
Mist, Parcialmente nuboso
Mist, Parcialmente nuboso
 Viento del calm
Viento: Calma
Temperatura: 7°C
Rocío: 7°C
Humedad: 100%
Barómetro: 1015 hPa
Resumen: Mist
Clouds: Parcialmente nuboso
Visibility: 2 km
2022/12/06 21:30 LEGE 062130Z 00000KT 2000 BR NSC 07/07 Q1015
 
LEAL - Alicante/El Alte, Spain
Distance from station: OSO 344km
Actualización: Tue, 06-Dec-2022 10:30pm CET
Despejado
Despejado
 Viento del O
Viento: O 7 km/h
Temperatura: 14°C
Rocío: 13°C
Humedad: 94%
Barómetro: 1016 hPa
Resumen: Despejado
Visibility: greater than 10 km
2022/12/06 21:30 LEAL 062130Z 27004KT CAVOK 14/13 Q1016 NOSIG
LEAM - Almeria Airport, Spain
Distance from station: SSO 56km
Actualización: Tue, 06-Dec-2022 10:30pm CET
Parcialmente nuboso
Parcialmente nuboso
 Viento del NNE
Viento: NNE 9 km/h
Temperatura: 15°C
Rocío: 13°C
Humedad: 88%
Barómetro: 1016 hPa
Clouds: Parcialmente nuboso
Visibility: 10 km
Cloud details: Few Clouds 1829 m
Parcialmente nuboso 2438 m
2022/12/06 21:30 LEAM 062130Z 03005KT 350V060 9999 FEW060 SCT080 15/13 Q1016
 
LEZG - Zaragoza (mil/Ci, Spain
Distance from station: NO 431km
Actualización: Tue, 06-Dec-2022 10:30pm CET
Mist, Cubierto
Mist, Cubierto
 Viento del O
Viento: O 11 km/h
Temperatura: 8°C
Sensación frio: 6°C
Rocío: 8°C
Humedad: 100%
Barómetro: 1016 hPa
Resumen: Mist
Clouds: Cubierto
Visibility: 2 km
Cloud details: Cubierto 122 m
2022/12/06 21:30 LEZG 062130Z 27006KT 1500 BR OVC004 08/08 Q1016
LEMD - Madrid/Barajas, Spain
Distance from station: ONO 234km
Actualización: Tue, 06-Dec-2022 10:30pm CET
Muy nuboso
Muy nuboso
 Viento del SE
Viento: SE 2 km/h
Temperatura: 10°C
Rocío: 9°C
Humedad: 94%
Barómetro: 1017 hPa
Clouds: Muy nuboso
Visibility: 8 km
Cloud details: Parcialmente nuboso 457 m
Muy nuboso 2134 m
2022/12/06 21:30 LEMD 062130Z 13001KT 8000 SCT015 BKN070 10/09 Q1017 BECMG 3000 BR
 
LEGR - Granada Airport, Spain
Distance from station: OSO 62km
Actualización: Tue, 06-Dec-2022 10:30pm CET
Few Clouds
Few Clouds
 Viento del calm
Viento: Calma
Temperatura: 9°C
Rocío: 8°C
Humedad: 94%
Barómetro: 1018 hPa
Clouds: Few Clouds
Visibility: 10 km
Cloud details: Few Clouds 1829 m
2022/12/06 21:30 LEGR 062130Z 00000KT 9999 FEW060 09/08 Q1018
LEMG - Malaga (civ/Mil), Spain
Distance from station: OSO 227km
Actualización: Tue, 06-Dec-2022 10:30pm CET
Despejado
Despejado
 Viento del O
Viento: O 13 km/h
Temperatura: 14°C
Rocío: 11°C
Humedad: 82%
Barómetro: 1016 hPa
Resumen: Despejado
Visibility: greater than 10 km
2022/12/06 21:30 LEMG 062130Z 28007KT CAVOK 14/11 Q1016 NOSIG
 
LEZL - Sevilla (civ/Mil, Spain
Distance from station: S 318km
Actualización: Tue, 06-Dec-2022 10:30pm CET
Parcialmente nuboso
Parcialmente nuboso
 Viento del SE
Viento: SE 6 km/h
Temperatura: 13°C
Rocío: 13°C
Humedad: 100%
Barómetro: 1016 hPa
Clouds: Parcialmente nuboso
Visibility: 7 km
2022/12/06 21:30 LEZL 062130Z 14003KT 7000 NSC 13/13 Q1016 NOSIG
LEVT - Vitoria, Spain
Distance from station: NO 226km
Actualización: Tue, 06-Dec-2022 10:30pm CET
Mist, Muy nuboso
Mist, Muy nuboso
 Viento del calm
Viento: Calma
Temperatura: 6°C
Rocío: 6°C
Humedad: 100%
Barómetro: 1017 hPa
Resumen: Mist
Clouds: Muy nuboso
Visibility: 5 km
Cloud details: Muy nuboso 2134 m
2022/12/06 21:30 LEVT 062130Z 00000KT 5000 BR BKN070 06/06 Q1017
 
LEBB - Bilbao/Sondica, Spain
Distance from station: NNO 235km
Actualización: Tue, 06-Dec-2022 10:30pm CET
Few Clouds
Few Clouds
 Viento del calm
Viento: Calma
Temperatura: 11°C
Rocío: 10°C
Humedad: 94%
Barómetro: 1017 hPa
Clouds: Few Clouds
Visibility: 10 km
Cloud details: Few Clouds 1859 m
2022/12/06 21:30 LEBB 062130Z 00000KT 9999 FEW061 11/10 Q1017 NOSIG
LESO - San Sebastian/Fu, Spain
Distance from station: N 231km
Actualización: Tue, 06-Dec-2022 10:30pm CET
Few Clouds
Few Clouds
 Viento del S
Viento: S 9 km/h
Temperatura: 11°C
Rocío: 10°C
Humedad: 94%
Barómetro: 1016 hPa
Clouds: Few Clouds
Visibility: 10 km
Cloud details: Few Clouds 579 m
2022/12/06 21:30 LESO 062130Z AUTO 19005KT 9999 FEW019 11/10 Q1016
 
LEVD - Valladolid(Mil/C, Spain
Distance from station: ONO 239km
Actualización: Tue, 06-Dec-2022 10:30pm CET
Muy nuboso
Muy nuboso
 Viento del OSO
Viento: OSO 7 km/h
Temperatura: 8°C
Sensación frio: 7°C
Rocío: 7°C
Humedad: 93%
Barómetro: 1017 hPa
Clouds: Muy nuboso
Visibility: 9 km
Cloud details: Parcialmente nuboso 274 m
Muy nuboso 427 m
Muy nuboso 579 m
2022/12/06 21:30 LEVD 062130Z AUTO 24004KT 200V280 9000 SCT009 BKN014 BKN019 08/07 Q1017
LESA - Salamanca (civ/M, Spain
Distance from station: ONO 349km
Actualización: Tue, 06-Dec-2022 10:30pm CET
Mist, Cubierto
Mist, Cubierto
 Viento del varies
Viento: varies 2 km/h
Temperatura: 8°C
Rocío: 8°C
Humedad: 100%
Barómetro: 1016 hPa
Resumen: Mist
Clouds: Cubierto
Visibility: 4 km
Cloud details: Cubierto 1372 m
2022/12/06 21:30 LESA 062130Z AUTO VRB01KT 4100 BR OVC045 08/08 Q1016
 
LEXJ - Santander/Paraya, Spain
Distance from station: NNO 247km
Actualización: Tue, 06-Dec-2022 10:30pm CET
Muy nuboso
Muy nuboso
 Viento del varies
Viento: varies 4 km/h
Temperatura: 12°C
Rocío: 9°C
Humedad: 82%
Barómetro: 1017 hPa
Clouds: Muy nuboso
Visibility: 10 km
Cloud details: Parcialmente nuboso 488 m
Muy nuboso 2316 m
2022/12/06 21:30 LEXJ 062130Z VRB02KT 9999 SCT016 BKN076 12/09 Q1017
LEAS - Asturias/Aviles, Spain
Distance from station: NO 214km
Actualización: Tue, 06-Dec-2022 10:30pm CET
Muy nuboso
Muy nuboso
 Viento del SSO
Viento: SSO 2 km/h
Temperatura: 11°C
Rocío: 10°C
Humedad: 94%
Barómetro: 1017 hPa
Clouds: Muy nuboso
Visibility: 10 km
Cloud details: Parcialmente nuboso 1006 m
Muy nuboso 2256 m
2022/12/06 21:30 LEAS 062130Z 21001KT 9999 SCT033 BKN074 11/10 Q1017 NOSIG
 
LECO - La Coruna/Alvedr, Spain
Distance from station: ONO 222km
Actualización: Tue, 06-Dec-2022 10:30pm CET
Parcialmente nuboso
Parcialmente nuboso
 Viento del S
Viento: S 6 km/h
Temperatura: 12°C
Rocío: 12°C
Humedad: 100%
Barómetro: 1016 hPa
Clouds: Parcialmente nuboso
Visibility: 10 km
Cloud details: Few Clouds 366 m
Parcialmente nuboso 671 m
2022/12/06 21:30 LECO 062130Z 17003KT 9999 FEW012 SCT022 12/12 Q1016 NOSIG
LEVX - Vigo/Peinador, Spain
Distance from station: O 214km
Actualización: Tue, 06-Dec-2022 10:30pm CET
Few Clouds
Few Clouds
 Viento del OSO
Viento: OSO 6 km/h
Temperatura: 10°C
Rocío: 9°C
Humedad: 94%
Barómetro: 1016 hPa
Clouds: Few Clouds
Visibility: 10 km
Cloud details: Few Clouds 1219 m
2022/12/06 21:30 LEVX 062130Z 25003KT 210V280 9999 FEW040 10/09 Q1016 NOSIG